sensor_id;sensor_type;location;lat;lon;timestamp;pressure;altitude;pressure_sealevel;temperature;humidity
81181;BME280;70650;51.408;7.132;2023-06-10T15:47:48;100306.63;;;24.26;50.24
81181;BME280;70650;51.408;7.132;2023-06-10T15:50:13;100304.97;;;24.33;50.62
81181;BME280;70650;51.408;7.132;2023-06-10T15:52:38;100306.97;;;24.31;50.37
81181;BME280;70650;51.408;7.132;2023-06-10T15:55:04;100303.28;;;24.24;50.58
81181;BME280;70650;51.408;7.132;2023-06-10T15:57:29;100309.84;;;24.22;50.56
81181;BME280;70650;51.408;7.132;2023-06-10T15:59:55;100299.75;;;24.16;50.53
81181;BME280;70650;51.408;7.132;2023-06-10T16:02:20;100296.38;;;24.14;50.22
81181;BME280;70650;51.408;7.132;2023-06-10T16:04:45;100302.97;;;24.11;50.01
81181;BME280;70650;51.408;7.132;2023-06-10T16:07:10;100301.44;;;24.09;49.62
81181;BME280;70650;51.408;7.132;2023-06-10T16:09:36;100307.88;;;24.08;49.25
81181;BME280;70650;51.408;7.132;2023-06-10T16:12:01;100309.91;;;24.05;49.05
81181;BME280;70650;51.408;7.132;2023-06-10T16:14:27;100298.22;;;24.05;48.98
81181;BME280;70650;51.408;7.132;2023-06-10T16:16:53;100300.09;;;24.04;48.61
81181;BME280;70650;51.408;7.132;2023-06-10T16:19:18;100300.94;;;24.05;48.72
81181;BME280;70650;51.408;7.132;2023-06-10T16:21:43;100299.44;;;24.02;48.77
81181;BME280;70650;51.408;7.132;2023-06-10T16:24:08;100301.94;;;24.04;48.82
81181;BME280;70650;51.408;7.132;2023-06-10T16:26:34;100302.78;;;24.04;48.54
81181;BME280;70650;51.408;7.132;2023-06-10T16:28:59;100302.78;;;24.04;48.95
81181;BME280;70650;51.408;7.132;2023-06-10T16:31:25;100292.84;;;24.05;48.83
81181;BME280;70650;51.408;7.132;2023-06-10T16:33:50;100298.22;;;24.05;48.95
81181;BME280;70650;51.408;7.132;2023-06-10T16:36:15;100302.78;;;24.04;48.88
81181;BME280;70650;51.408;7.132;2023-06-10T16:38:40;100300.94;;;24.05;48.82
81181;BME280;70650;51.408;7.132;2023-06-10T16:41:07;100294.69;;;24.04;48.81
81181;BME280;70650;51.408;7.132;2023-06-10T16:43:32;100299.25;;;24.04;48.87
81181;BME280;70650;51.408;7.132;2023-06-10T16:45:57;100292.16;;;24.03;48.70
81181;BME280;70650;51.408;7.132;2023-06-10T16:48:23;100294.88;;;24.03;48.78
81181;BME280;70650;51.408;7.132;2023-06-10T16:50:48;100293.19;;;24.02;48.61
81181;BME280;70650;51.408;7.132;2023-06-10T16:53:13;100291.50;;;24.01;48.61
81181;BME280;70650;51.408;7.132;2023-06-10T16:55:38;100302.31;;;24.01;48.60
81181;BME280;70650;51.408;7.132;2023-06-10T16:58:06;100296.91;;;24.01;48.60
81181;BME280;70650;51.408;7.132;2023-06-10T17:00:31;100300.44;;;24.01;48.74
81181;BME280;70650;51.408;7.132;2023-06-10T17:02:56;100306.88;;;24.00;48.81
81181;BME280;70650;51.408;7.132;2023-06-10T17:05:21;100308.72;;;24.00;48.94
81181;BME280;70650;51.408;7.132;2023-06-10T17:07:47;100302.47;;;23.99;49.09
81181;BME280;70650;51.408;7.132;2023-06-10T17:10:12;100311.59;;;23.98;48.94
81181;BME280;70650;51.408;7.132;2023-06-10T17:12:38;100313.44;;;23.98;48.96
81181;BME280;70650;51.408;7.132;2023-06-10T17:15:04;100308.03;;;23.98;49.01
81181;BME280;70650;51.408;7.132;2023-06-10T17:17:29;100316.16;;;23.98;48.89
81181;BME280;70650;51.408;7.132;2023-06-10T17:19:55;100308.88;;;23.98;49.09
81181;BME280;70650;51.408;7.132;2023-06-10T17:22:20;100309.06;;;23.97;48.95
81181;BME280;70650;51.408;7.132;2023-06-10T17:24:46;100306.34;;;23.97;49.16
81181;BME280;70650;51.408;7.132;2023-06-10T17:27:11;100310.91;;;23.96;49.19
81181;BME280;70650;51.408;7.132;2023-06-10T17:29:36;100309.25;;;23.95;49.17
81181;BME280;70650;51.408;7.132;2023-06-10T17:32:02;100305.69;;;23.95;49.20
81181;BME280;70650;51.408;7.132;2023-06-10T17:34:27;100309.25;;;23.95;49.11
81181;BME280;70650;51.408;7.132;2023-06-10T17:36:52;100310.25;;;23.94;49.20
81181;BME280;70650;51.408;7.132;2023-06-10T17:39:17;100307.56;;;23.94;49.21
81181;BME280;70650;51.408;7.132;2023-06-10T17:41:43;100317.66;;;23.92;48.95
81181;BME280;70650;51.408;7.132;2023-06-10T17:44:08;100310.41;;;23.93;49.07
81181;BME280;70650;51.408;7.132;2023-06-10T17:46:34;100323.91;;;23.93;49.12
81181;BME280;70650;51.408;7.132;2023-06-10T17:48:59;100325.78;;;23.92;49.21
81181;BME280;70650;51.408;7.132;2023-06-10T17:51:24;100326.59;;;23.93;49.15
81181;BME280;70650;51.408;7.132;2023-06-10T17:53:50;100325.78;;;23.92;49.19
81181;BME280;70650;51.408;7.132;2023-06-10T17:56:15;100331.16;;;23.92;49.27
81181;BME280;70650;51.408;7.132;2023-06-10T17:58:41;100330.31;;;23.92;48.98
81181;BME280;70650;51.408;7.132;2023-06-10T18:01:07;100332.00;;;23.93;48.72
81181;BME280;70650;51.408;7.132;2023-06-10T18:03:32;100331.16;;;23.92;49.04
81181;BME280;70650;51.408;7.132;2023-06-10T18:06:01;100338.59;;;23.90;49.11
81181;BME280;70650;51.408;7.132;2023-06-10T18:08:26;100333.22;;;23.90;49.08
81181;BME280;70650;51.408;7.132;2023-06-10T18:10:53;100339.44;;;23.91;49.02
81181;BME280;70650;51.408;7.132;2023-06-10T18:13:18;100361.06;;;23.91;48.87
81181;BME280;70650;51.408;7.132;2023-06-10T18:15:44;100345.69;;;23.91;49.05
81181;BME280;70650;51.408;7.132;2023-06-10T18:18:09;100346.72;;;23.90;49.12
81181;BME280;70650;51.408;7.132;2023-06-10T18:20:35;100352.94;;;23.91;49.10
81181;BME280;70650;51.408;7.132;2023-06-10T18:23:00;100352.94;;;23.91;49.11
81181;BME280;70650;51.408;7.132;2023-06-10T18:25:25;100353.97;;;23.90;49.01
81181;BME280;70650;51.408;7.132;2023-06-10T18:27:51;100349.41;;;23.90;49.00
81181;BME280;70650;51.408;7.132;2023-06-10T18:30:16;100363.75;;;23.91;48.91
81181;BME280;70650;51.408;7.132;2023-06-10T18:32:41;100353.97;;;23.90;48.84
81181;BME280;70650;51.408;7.132;2023-06-10T18:35:07;100359.38;;;23.90;48.94
81181;BME280;70650;51.408;7.132;2023-06-10T18:37:32;100358.19;;;23.92;48.97
81181;BME280;70650;51.408;7.132;2023-06-10T18:39:57;100369.16;;;23.91;48.80
81181;BME280;70650;51.408;7.132;2023-06-10T18:42:23;100370.16;;;23.90;48.89
81181;BME280;70650;51.408;7.132;2023-06-10T18:44:48;100363.09;;;23.89;48.85
81181;BME280;70650;51.408;7.132;2023-06-10T18:47:13;100366.63;;;23.89;48.91
81181;BME280;70650;51.408;7.132;2023-06-10T18:49:38;100365.78;;;23.89;48.68
81181;BME280;70650;51.408;7.132;2023-06-10T18:52:05;100366.63;;;23.89;48.69
81181;BME280;70650;51.408;7.132;2023-06-10T18:54:30;100369.47;;;23.88;48.89
81181;BME280;70650;51.408;7.132;2023-06-10T18:56:56;100373.88;;;23.89;48.76
81181;BME280;70650;51.408;7.132;2023-06-10T18:59:23;100369.31;;;23.89;48.87
81181;BME280;70650;51.408;7.132;2023-06-10T19:01:48;100377.44;;;23.89;48.93
81181;BME280;70650;51.408;7.132;2023-06-10T19:04:14;100365.78;;;23.89;48.82
81181;BME280;70650;51.408;7.132;2023-06-10T19:06:39;100381.81;;;23.90;48.86
81181;BME280;70650;51.408;7.132;2023-06-10T19:09:04;100382.97;;;23.88;48.88
81181;BME280;70650;51.408;7.132;2023-06-10T19:11:29;100382.13;;;23.87;48.72
81181;BME280;70650;51.408;7.132;2023-06-10T19:13:56;100388.38;;;23.88;48.75
81181;BME280;70650;51.408;7.132;2023-06-10T19:16:21;100380.44;;;23.86;48.61
81181;BME280;70650;51.408;7.132;2023-06-10T19:18:46;100393.94;;;23.86;48.69
81181;BME280;70650;51.408;7.132;2023-06-10T19:21:12;100391.25;;;23.86;48.58
81181;BME280;70650;51.408;7.132;2023-06-10T19:23:37;100392.28;;;23.85;48.40
81181;BME280;70650;51.408;7.132;2023-06-10T19:26:03;100399.53;;;23.85;48.45
81181;BME280;70650;51.408;7.132;2023-06-10T19:28:28;100394.13;;;23.85;48.61
81181;BME280;70650;51.408;7.132;2023-06-10T19:30:54;100407.63;;;23.85;48.21
81181;BME280;70650;51.408;7.132;2023-06-10T19:33:19;100402.41;;;23.83;48.51
81181;BME280;70650;51.408;7.132;2023-06-10T19:35:44;100400.69;;;23.82;48.39
81181;BME280;70650;51.408;7.132;2023-06-10T19:38:10;100404.41;;;23.81;48.23
81181;BME280;70650;51.408;7.132;2023-06-10T19:40:35;100411.50;;;23.82;48.54
81181;BME280;70650;51.408;7.132;2023-06-10T19:43:00;100416.03;;;23.82;48.27
81181;BME280;70650;51.408;7.132;2023-06-10T19:45:26;100415.22;;;23.81;48.42
81181;BME280;70650;51.408;7.132;2023-06-10T19:47:51;100415.22;;;23.81;48.42
81181;BME280;70650;51.408;7.132;2023-06-10T19:50:17;100421.63;;;23.80;48.37
81181;BME280;70650;51.408;7.132;2023-06-10T19:52:42;100416.22;;;23.80;48.28
81181;BME280;70650;51.408;7.132;2023-06-10T19:55:08;100420.59;;;23.81;48.45
81181;BME280;70650;51.408;7.132;2023-06-10T19:57:34;100423.47;;;23.79;48.47
81181;BME280;70650;51.408;7.132;2023-06-10T19:59:59;100429.72;;;23.80;48.31
81181;BME280;70650;51.408;7.132;2023-06-10T20:02:24;100420.59;;;23.81;48.44
81181;BME280;70650;51.408;7.132;2023-06-10T20:04:50;100423.47;;;23.79;48.50
81181;BME280;70650;51.408;7.132;2023-06-10T20:07:15;100425.16;;;23.80;48.46
81181;BME280;70650;51.408;7.132;2023-06-10T20:09:40;100430.56;;;23.80;48.47
81181;BME280;70650;51.408;7.132;2023-06-10T20:12:07;100431.59;;;23.79;48.55
81181;BME280;70650;51.408;7.132;2023-06-10T20:14:32;100437.81;;;23.80;48.55
81181;BME280;70650;51.408;7.132;2023-06-10T20:16:58;100438.84;;;23.79;48.52
81181;BME280;70650;51.408;7.132;2023-06-10T20:19:23;100444.25;;;23.79;48.55
81181;BME280;70650;51.408;7.132;2023-06-10T20:21:48;100438.84;;;23.79;48.46
81181;BME280;70650;51.408;7.132;2023-06-10T20:24:13;100445.94;;;23.80;48.65
81181;BME280;70650;51.408;7.132;2023-06-10T20:26:39;100453.00;;;23.81;48.55
81181;BME280;70650;51.408;7.132;2023-06-10T20:29:04;100453.00;;;23.81;48.66
81181;BME280;70650;51.408;7.132;2023-06-10T20:31:29;100460.97;;;23.83;48.66
81181;BME280;70650;51.408;7.132;2023-06-10T20:33:55;100462.78;;;23.82;48.59
81181;BME280;70650;51.408;7.132;2023-06-10T20:36:21;100462.78;;;23.82;48.56
81181;BME280;70650;51.408;7.132;2023-06-10T20:38:47;100464.50;;;23.83;48.65
81181;BME280;70650;51.408;7.132;2023-06-10T20:41:14;100465.50;;;23.82;48.79
81181;BME280;70650;51.408;7.132;2023-06-10T20:43:40;100461.09;;;23.81;48.86
81181;BME280;70650;51.408;7.132;2023-06-10T20:46:05;100467.34;;;23.82;48.77
81181;BME280;70650;51.408;7.132;2023-06-10T20:48:30;100468.19;;;23.82;48.83
81181;BME280;70650;51.408;7.132;2023-06-10T20:50:56;100473.44;;;23.84;48.70
81181;BME280;70650;51.408;7.132;2023-06-10T20:53:21;100479.88;;;23.83;48.73
81181;BME280;70650;51.408;7.132;2023-06-10T20:55:47;100475.31;;;23.83;48.99
81181;BME280;70650;51.408;7.132;2023-06-10T20:58:12;100474.28;;;23.84;48.75
81181;BME280;70650;51.408;7.132;2023-06-10T21:00:37;100468.88;;;23.84;48.84
81181;BME280;70650;51.408;7.132;2023-06-10T21:03:03;100472.59;;;23.83;48.99
81181;BME280;70650;51.408;7.132;2023-06-10T21:05:28;100478.66;;;23.85;48.81
81181;BME280;70650;51.408;7.132;2023-06-10T21:07:53;100471.59;;;23.84;49.02
81181;BME280;70650;51.408;7.132;2023-06-10T21:10:19;100468.88;;;23.84;49.12
81181;BME280;70650;51.408;7.132;2023-06-10T21:12:44;100474.28;;;23.84;49.13
81181;BME280;70650;51.408;7.132;2023-06-10T21:15:10;100476.81;;;23.86;49.11
81181;BME280;70650;51.408;7.132;2023-06-10T21:17:35;100474.28;;;23.84;49.24
81181;BME280;70650;51.408;7.132;2023-06-10T21:20:01;100480.69;;;23.83;49.47
81181;BME280;70650;51.408;7.132;2023-06-10T21:22:26;100481.38;;;23.85;49.25
81181;BME280;70650;51.408;7.132;2023-06-10T21:24:52;100476.16;;;23.84;49.42
81181;BME280;70650;51.408;7.132;2023-06-10T21:27:17;100482.38;;;23.84;49.18
81181;BME280;70650;51.408;7.132;2023-06-10T21:29:43;100485.94;;;23.85;49.46
81181;BME280;70650;51.408;7.132;2023-06-10T21:32:09;100485.09;;;23.84;49.30
81181;BME280;70650;51.408;7.132;2023-06-10T21:34:35;100481.38;;;23.85;49.24
81181;BME280;70650;51.408;7.132;2023-06-10T21:37:00;100485.09;;;23.84;49.37
81181;BME280;70650;51.408;7.132;2023-06-10T21:39:25;100481.38;;;23.85;49.52
81181;BME280;70650;51.408;7.132;2023-06-10T21:41:50;100491.34;;;23.85;49.42
81181;BME280;70650;51.408;7.132;2023-06-10T21:44:16;100490.66;;;23.83;49.42
81181;BME280;70650;51.408;7.132;2023-06-10T21:46:41;100493.19;;;23.84;49.38
81181;BME280;70650;51.408;7.132;2023-06-10T21:49:06;100490.50;;;23.84;49.53
81181;BME280;70650;51.408;7.132;2023-06-10T21:51:32;100485.94;;;23.85;49.56
81181;BME280;70650;51.408;7.132;2023-06-10T21:53:57;100490.50;;;23.84;49.59
81181;BME280;70650;51.408;7.132;2023-06-10T21:56:23;100494.22;;;23.83;49.66
81181;BME280;70650;51.408;7.132;2023-06-10T21:58:48;100495.88;;;23.84;49.55
81181;BME280;70650;51.408;7.132;2023-06-10T22:01:14;100495.88;;;23.84;49.59
81181;BME280;70650;51.408;7.132;2023-06-10T22:03:39;100493.19;;;23.84;49.74
81181;BME280;70650;51.408;7.132;2023-06-10T22:06:04;100493.38;;;23.83;49.85
81181;BME280;70650;51.408;7.132;2023-06-10T22:08:30;100488.81;;;23.83;49.74
81181;BME280;70650;51.408;7.132;2023-06-10T22:10:55;100486.09;;;23.83;49.73
81181;BME280;70650;51.408;7.132;2023-06-10T22:13:20;100490.50;;;23.84;49.73
81181;BME280;70650;51.408;7.132;2023-06-10T22:15:46;100488.81;;;23.83;49.69
81181;BME280;70650;51.408;7.132;2023-06-10T22:18:11;100489.66;;;23.84;49.97
81181;BME280;70650;51.408;7.132;2023-06-10T22:20:36;100486.09;;;23.83;49.80
81181;BME280;70650;51.408;7.132;2023-06-10T22:23:02;100480.84;;;23.82;50.06
81181;BME280;70650;51.408;7.132;2023-06-10T22:25:27;100484.38;;;23.82;49.82
81181;BME280;70650;51.408;7.132;2023-06-10T22:27:52;100487.09;;;23.82;49.99
81181;BME280;70650;51.408;7.132;2023-06-10T22:30:17;100487.97;;;23.83;50.06
81181;BME280;70650;51.408;7.132;2023-06-10T22:32:43;100485.25;;;23.83;50.09
81181;BME280;70650;51.408;7.132;2023-06-10T22:35:10;100487.09;;;23.82;50.18
81181;BME280;70650;51.408;7.132;2023-06-10T22:37:35;100485.25;;;23.83;50.14
81181;BME280;70650;51.408;7.132;2023-06-10T22:40:01;100486.25;;;23.82;50.23
81181;BME280;70650;51.408;7.132;2023-06-10T22:42:27;100477.16;;;23.83;50.13
81181;BME280;70650;51.408;7.132;2023-06-10T22:44:52;100483.53;;;23.82;50.29
81181;BME280;70650;51.408;7.132;2023-06-10T22:47:18;100486.25;;;23.82;50.19
81181;BME280;70650;51.408;7.132;2023-06-10T22:49:43;100490.66;;;23.83;50.27
81181;BME280;70650;51.408;7.132;2023-06-10T22:52:09;100493.50;;;23.81;50.45
81181;BME280;70650;51.408;7.132;2023-06-10T22:54:36;100494.34;;;23.82;50.30
81181;BME280;70650;51.408;7.132;2023-06-10T22:57:01;100490.81;;;23.81;50.46
81181;BME280;70650;51.408;7.132;2023-06-10T22:59:26;100489.97;;;23.80;50.59
81181;BME280;70650;51.408;7.132;2023-06-10T23:01:52;100489.13;;;23.80;50.68
81181;BME280;70650;51.408;7.132;2023-06-10T23:04:17;100493.50;;;23.81;50.51
81181;BME280;70650;51.408;7.132;2023-06-10T23:06:44;100490.81;;;23.81;50.69
81181;BME280;70650;51.408;7.132;2023-06-10T23:09:09;100494.53;;;23.80;50.59
81181;BME280;70650;51.408;7.132;2023-06-10T23:11:35;100492.84;;;23.79;50.80
81181;BME280;70650;51.408;7.132;2023-06-10T23:14:00;100495.38;;;23.80;50.78
81181;BME280;70650;51.408;7.132;2023-06-10T23:16:26;100500.75;;;23.80;50.62
81181;BME280;70650;51.408;7.132;2023-06-10T23:18:52;100490.13;;;23.79;50.83
81181;BME280;70650;51.408;7.132;2023-06-10T23:21:18;100508.03;;;23.80;50.70
81181;BME280;70650;51.408;7.132;2023-06-10T23:23:44;100497.22;;;23.80;50.89
81181;BME280;70650;51.408;7.132;2023-06-10T23:26:10;100506.34;;;23.79;50.94
81181;BME280;70650;51.408;7.132;2023-06-10T23:28:35;100508.88;;;23.80;50.94
81181;BME280;70650;51.408;7.132;2023-06-10T23:31:01;100506.34;;;23.79;51.01
81181;BME280;70650;51.408;7.132;2023-06-10T23:33:26;100510.06;;;23.78;51.01
81181;BME280;70650;51.408;7.132;2023-06-10T23:35:52;100512.75;;;23.78;51.15
81181;BME280;70650;51.408;7.132;2023-06-10T23:38:18;100511.91;;;23.77;51.12
81181;BME280;70650;51.408;7.132;2023-06-10T23:40:43;100509.22;;;23.77;51.08
81181;BME280;70650;51.408;7.132;2023-06-10T23:43:11;100512.91;;;23.76;51.10
81181;BME280;70650;51.408;7.132;2023-06-10T23:45:36;100508.38;;;23.77;51.22
81181;BME280;70650;51.408;7.132;2023-06-10T23:48:01;100508.38;;;23.77;51.03
81181;BME280;70650;51.408;7.132;2023-06-10T23:50:27;100512.75;;;23.78;51.09
81181;BME280;70650;51.408;7.132;2023-06-10T23:52:52;100507.34;;;23.78;51.36
81181;BME280;70650;51.408;7.132;2023-06-10T23:55:18;100514.59;;;23.77;51.23
81181;BME280;70650;51.408;7.132;2023-06-10T23:57:43;100516.47;;;23.77;51.26
